createdAt,value
2022-09-18T00:01:33.238Z,101791.13
2022-09-18T00:04:03.012Z,101791.98
2022-09-18T00:06:32.354Z,101787.30
2022-09-18T00:09:01.037Z,101792.02
2022-09-18T00:11:30.819Z,101790.54
2022-09-18T00:13:58.769Z,101798.62
2022-09-18T00:16:26.648Z,101792.93
2022-09-18T00:18:54.528Z,101803.20
2022-09-18T00:21:25.238Z,101791.23
2022-09-18T00:23:55.514Z,101794.62
2022-09-18T00:26:23.581Z,101788.91
2022-09-18T00:28:51.243Z,101792.24
2022-09-18T00:31:21.093Z,101796.49
2022-09-18T00:33:48.921Z,101791.95
2022-09-18T00:36:17.620Z,101790.90
2022-09-18T00:38:45.427Z,101791.06
2022-09-18T00:41:25.377Z,101786.20
2022-09-18T00:43:53.954Z,101788.52
2022-09-18T00:46:35.179Z,101785.18
2022-09-18T00:49:17.599Z,101794.40
2022-09-18T00:51:46.393Z,101785.84
2022-09-18T00:54:19.514Z,101784.95
2022-09-18T00:56:47.669Z,101786.13
2022-09-18T00:59:16.298Z,101783.41
2022-09-18T01:01:44.094Z,101780.54
2022-09-18T01:04:15.110Z,101794.34
2022-09-18T01:07:12.196Z,101790.12
2022-09-18T01:09:49.439Z,101798.36
2022-09-18T01:12:20.119Z,101791.49
2022-09-18T01:15:11.072Z,101780.90
2022-09-18T01:17:51.143Z,101774.00
2022-09-18T01:20:26.842Z,101778.09
2022-09-18T01:23:32.059Z,101788.19
2022-09-18T01:26:26.978Z,101775.47
2022-09-18T01:29:28.771Z,101775.96
2022-09-18T01:32:31.017Z,101776.81
2022-09-18T01:35:14.063Z,101782.53
2022-09-18T01:38:01.658Z,101787.60
2022-09-18T01:40:32.879Z,101782.89
2022-09-18T01:43:01.776Z,101778.67
2022-09-18T01:45:32.086Z,101773.97
2022-09-18T01:48:02.625Z,101774.48
2022-09-18T01:50:32.858Z,101760.20
2022-09-18T01:53:19.691Z,101770.80
2022-09-18T01:55:54.032Z,101767.27
2022-09-18T01:58:23.139Z,101757.52
2022-09-18T02:00:55.553Z,101766.09
2022-09-18T02:03:28.824Z,101761.73
2022-09-18T02:06:00.123Z,101762.91
2022-09-18T02:08:38.602Z,101769.48
2022-09-18T02:11:11.128Z,101776.68
2022-09-18T02:13:47.478Z,101770.14
2022-09-18T02:16:39.357Z,101766.94
2022-09-18T02:19:10.749Z,101760.73
2022-09-18T02:21:38.519Z,101765.59
2022-09-18T02:24:08.110Z,101762.75
2022-09-18T02:26:36.452Z,101770.80
2022-09-18T02:29:04.394Z,101755.85
2022-09-18T02:31:32.330Z,101755.00
2022-09-18T02:34:00.092Z,101765.59
2022-09-18T02:36:30.478Z,101763.41
2022-09-18T02:39:23.077Z,101766.74
2022-09-18T02:42:13.420Z,101758.14
2022-09-18T02:45:08.996Z,101756.63
2022-09-18T02:47:52.782Z,101748.89
2022-09-18T02:50:31.343Z,101749.41
2022-09-18T02:53:07.495Z,101742.51
2022-09-18T02:55:44.283Z,101744.87
2022-09-18T02:58:29.838Z,101738.13
2022-09-18T03:01:00.030Z,101741.30
2022-09-18T03:03:29.318Z,101749.54
2022-09-18T03:05:58.528Z,101754.61
2022-09-18T03:08:26.659Z,101757.78
2022-09-18T03:10:56.313Z,101747.71
2022-09-18T03:13:23.995Z,101748.04
2022-09-18T03:15:51.824Z,101743.62
2022-09-18T03:18:19.581Z,101735.58
2022-09-18T03:20:47.272Z,101740.65
2022-09-18T03:23:14.959Z,101739.63
2022-09-18T03:25:42.670Z,101734.41
2022-09-18T03:28:10.372Z,101747.19
2022-09-18T03:30:38.192Z,101738.95
2022-09-18T03:33:05.957Z,101749.21
2022-09-18T03:35:33.674Z,101745.52
2022-09-18T03:38:01.356Z,101738.95
2022-09-18T03:40:29.136Z,101746.70
2022-09-18T03:42:56.893Z,101747.02
2022-09-18T03:45:24.698Z,101744.80
2022-09-18T03:47:52.430Z,101738.42
2022-09-18T03:50:20.119Z,101738.78
2022-09-18T03:52:51.445Z,101756.77
2022-09-18T03:55:19.560Z,101752.55
2022-09-18T03:57:48.026Z,101758.56
2022-09-18T04:00:16.035Z,101768.21
2022-09-18T04:02:44.174Z,101771.38
2022-09-18T04:05:11.929Z,101762.78
2022-09-18T04:07:39.840Z,101775.41
2022-09-18T04:10:08.030Z,101773.73
2022-09-18T04:12:35.894Z,101770.20
2022-09-18T04:15:03.580Z,101755.59
2022-09-18T04:17:31.313Z,101761.31
2022-09-18T04:19:59.056Z,101764.52
2022-09-18T04:22:26.759Z,101762.49
2022-09-18T04:24:54.489Z,101755.59
2022-09-18T04:27:22.216Z,101751.90
2022-09-18T04:29:49.901Z,101759.61
2022-09-18T04:32:17.603Z,101760.98
2022-09-18T04:34:45.329Z,101760.13
2022-09-18T04:37:13.027Z,101756.41
2022-09-18T04:39:40.674Z,101758.80
2022-09-18T04:42:08.420Z,101751.38
2022-09-18T04:44:36.148Z,101755.07
2022-09-18T04:47:03.909Z,101753.92
2022-09-18T04:49:31.697Z,101752.02
2022-09-18T04:51:59.428Z,101755.88
2022-09-18T04:54:27.135Z,101761.90
2022-09-18T04:56:54.840Z,101768.47
2022-09-18T04:59:22.639Z,101778.22
2022-09-18T05:01:50.411Z,101772.20
2022-09-18T05:04:18.151Z,101792.70
2022-09-18T05:06:45.896Z,101786.13
2022-09-18T05:09:13.559Z,101798.75
2022-09-18T05:11:41.250Z,101793.23
2022-09-18T05:14:09.152Z,101803.45
2022-09-18T05:16:36.939Z,101811.20
2022-09-18T05:19:04.700Z,101804.30
2022-09-18T05:21:32.423Z,101818.59
2022-09-18T05:24:00.191Z,101821.44
2022-09-18T05:26:27.997Z,101820.30
2022-09-18T05:28:55.686Z,101824.84
2022-09-18T05:31:23.432Z,101821.96
2022-09-18T05:33:51.263Z,101820.79
2022-09-18T05:36:18.979Z,101824.19
2022-09-18T05:38:46.738Z,101827.69
2022-09-18T05:41:14.498Z,101826.84
2022-09-18T05:43:45.367Z,101829.35
2022-09-18T05:46:13.259Z,101837.43
2022-09-18T05:48:40.988Z,101843.64
2022-09-18T05:51:08.723Z,101839.12
2022-09-18T05:53:37.024Z,101838.28
2022-09-18T05:56:04.795Z,101843.34
2022-09-18T05:58:32.593Z,101843.34
2022-09-18T06:01:02.403Z,101841.84
2022-09-18T06:03:30.170Z,101843.51
2022-09-18T06:05:57.837Z,101844.36
2022-09-18T06:08:25.777Z,101841.52
2022-09-18T06:10:54.841Z,101854.30
2022-09-18T06:13:22.504Z,101844.88
2022-09-18T06:15:51.458Z,101847.40
2022-09-18T06:18:19.479Z,101847.63
2022-09-18T06:20:56.518Z,101839.23
2022-09-18T06:23:24.998Z,101842.07
2022-09-18T06:26:09.357Z,101839.39
2022-09-18T06:28:39.219Z,101833.87
2022-09-18T06:31:07.078Z,101831.84
2022-09-18T06:33:37.265Z,101830.37
2022-09-18T06:36:09.372Z,101835.37
2022-09-18T06:38:37.130Z,101818.73
2022-09-18T06:41:04.813Z,101822.12
2022-09-18T06:43:32.536Z,101815.81
2022-09-18T06:46:00.300Z,101829.87
2022-09-18T06:48:28.153Z,101819.28
2022-09-18T06:50:56.516Z,101824.71
2022-09-18T06:53:24.847Z,101825.16
2022-09-18T06:55:52.629Z,101824.12
2022-09-18T06:58:20.737Z,101812.52
2022-09-18T07:00:48.594Z,101811.53
2022-09-18T07:03:16.475Z,101801.43
2022-09-18T07:05:46.458Z,101813.76
2022-09-18T07:08:14.504Z,101812.32
2022-09-18T07:10:42.315Z,101808.75
2022-09-18T07:13:10.120Z,101816.02
2022-09-18T07:15:37.888Z,101816.02
2022-09-18T07:18:06.246Z,101811.47
2022-09-18T07:20:34.243Z,101818.56
2022-09-18T07:23:02.754Z,101826.97
2022-09-18T07:25:32.031Z,101819.64
2022-09-18T07:28:04.520Z,101836.68
2022-09-18T07:30:32.271Z,101830.66
2022-09-18T07:32:59.947Z,101834.23
2022-09-18T07:35:27.771Z,101828.02
2022-09-18T07:38:00.279Z,101829.38
2022-09-18T07:40:28.751Z,101831.15
2022-09-18T07:43:01.344Z,101829.16
2022-09-18T07:45:29.114Z,101832.69
2022-09-18T07:47:57.023Z,101843.84
2022-09-18T07:50:25.143Z,101841.45
2022-09-18T07:53:00.013Z,101846.91
2022-09-18T07:55:28.124Z,101852.11
2022-09-18T07:58:00.096Z,101859.37
2022-09-18T08:00:29.085Z,101857.93
2022-09-18T08:03:07.962Z,101855.70
2022-09-18T08:05:35.808Z,101856.26
2022-09-18T08:08:14.293Z,101859.14
2022-09-18T08:10:43.065Z,101855.41
2022-09-18T08:13:10.824Z,101855.41
2022-09-18T08:15:39.499Z,101859.79
2022-09-18T08:18:08.037Z,101863.32
2022-09-18T08:20:36.129Z,101858.78
2022-09-18T08:23:04.952Z,101862.34
2022-09-18T08:25:32.720Z,101864.83
2022-09-18T08:28:02.807Z,101860.67
2022-09-18T08:30:30.868Z,101845.30
2022-09-18T08:33:00.176Z,101853.65
2022-09-18T08:35:28.908Z,101856.06
2022-09-18T08:37:56.813Z,101850.34
2022-09-18T08:40:37.452Z,101839.16
2022-09-18T08:43:23.499Z,101851.23
2022-09-18T08:46:09.051Z,101844.59
2022-09-18T08:48:40.621Z,101840.30
2022-09-18T08:51:16.595Z,101840.70
2022-09-18T08:53:46.226Z,101834.95
2022-09-18T08:56:19.701Z,101837.46
2022-09-18T08:58:59.689Z,101831.45
2022-09-18T09:01:54.160Z,101838.67
2022-09-18T09:04:26.547Z,101838.05
2022-09-18T09:07:18.074Z,101826.64
2022-09-18T09:10:15.336Z,101825.73
2022-09-18T09:13:19.346Z,101823.66
2022-09-18T09:15:58.534Z,101814.57
2022-09-18T09:18:54.136Z,101816.54
2022-09-18T09:21:25.904Z,101809.44
2022-09-18T09:24:09.421Z,101812.58
2022-09-18T09:26:37.149Z,101814.09
2022-09-18T09:29:07.904Z,101799.53
2022-09-18T09:31:38.329Z,101807.15
2022-09-18T09:34:25.451Z,101810.88
2022-09-18T09:36:54.539Z,101814.73
2022-09-18T09:39:50.632Z,101809.41
2022-09-18T09:42:33.559Z,101805.02
2022-09-18T09:45:05.053Z,101810.36
2022-09-18T09:48:05.201Z,101806.50
2022-09-18T09:50:50.544Z,101800.29
2022-09-18T09:53:18.307Z,101811.80
2022-09-18T09:55:48.965Z,101814.12
2022-09-18T09:58:26.510Z,101814.34
2022-09-18T10:01:10.633Z,101824.28
2022-09-18T10:03:57.008Z,101810.00
2022-09-18T10:06:42.634Z,101808.30
2022-09-18T10:09:30.997Z,101806.23
2022-09-18T10:12:20.074Z,101798.52
2022-09-18T10:14:47.853Z,101804.80
2022-09-18T10:17:15.615Z,101801.82
2022-09-18T10:19:44.028Z,101808.30
2022-09-18T10:22:14.124Z,101811.53
2022-09-18T10:24:48.344Z,101803.45
2022-09-18T10:27:16.407Z,101798.03
2022-09-18T10:29:44.303Z,101797.41
2022-09-18T10:32:15.013Z,101790.58
2022-09-18T10:34:47.075Z,101795.61
2022-09-18T10:37:30.273Z,101792.93
2022-09-18T10:40:00.877Z,101786.48
2022-09-18T10:42:35.396Z,101782.86
2022-09-18T10:45:10.820Z,101783.41
2022-09-18T10:47:38.687Z,101776.55
2022-09-18T10:50:12.572Z,101771.32
2022-09-18T10:52:41.404Z,101769.91
2022-09-18T10:55:09.967Z,101760.13
2022-09-18T10:57:39.215Z,101756.44
2022-09-18T11:00:12.868Z,101758.76
2022-09-18T11:02:42.824Z,101760.30
2022-09-18T11:05:22.778Z,101744.18
2022-09-18T11:07:54.922Z,101741.70
2022-09-18T11:10:24.030Z,101750.13
2022-09-18T11:12:56.134Z,101758.01
2022-09-18T11:18:19.674Z,101746.24
2022-09-18T11:20:47.936Z,101735.25
2022-09-18T11:23:30.153Z,101740.12
2022-09-18T11:26:18.676Z,101745.45
2022-09-18T11:29:19.444Z,101740.84
2022-09-18T11:31:49.486Z,101739.73
2022-09-18T11:34:24.191Z,101727.24
2022-09-18T11:36:57.777Z,101728.06
2022-09-18T11:39:34.845Z,101722.63
2022-09-18T11:42:03.393Z,101722.99
2022-09-18T11:44:39.184Z,101720.77
2022-09-18T11:47:29.435Z,101721.32
2022-09-18T11:50:06.553Z,101713.94
2022-09-18T11:52:44.176Z,101717.43
2022-09-18T11:55:36.562Z,101716.35
2022-09-18T11:58:06.184Z,101723.65
2022-09-18T12:00:46.662Z,101712.53
2022-09-18T12:03:28.246Z,101697.75
2022-09-18T12:05:59.258Z,101706.64
2022-09-18T12:08:32.288Z,101701.12
2022-09-18T12:11:45.979Z,101700.98
2022-09-18T12:14:28.945Z,101688.50
2022-09-18T12:17:11.380Z,101689.05
2022-09-18T12:19:50.334Z,101684.73
2022-09-18T12:22:30.865Z,101674.77
2022-09-18T12:24:59.432Z,101682.45
2022-09-18T12:28:02.988Z,101662.38
2022-09-18T12:30:48.900Z,101662.66
2022-09-18T12:33:33.973Z,101656.13
2022-09-18T12:36:38.933Z,101656.39
2022-09-18T12:39:34.591Z,101664.56
2022-09-18T12:42:40.893Z,101650.34
2022-09-18T12:45:56.975Z,101653.80
2022-09-18T12:48:46.221Z,101650.44
2022-09-18T12:51:32.812Z,101639.23
2022-09-18T12:54:24.217Z,101643.05
2022-09-18T12:57:33.179Z,101630.88
2022-09-18T13:00:23.282Z,101634.25
2022-09-18T13:02:57.106Z,101639.62
2022-09-18T13:05:37.116Z,101633.37
2022-09-18T13:08:29.195Z,101625.43
2022-09-18T13:11:26.546Z,101621.30
2022-09-18T13:14:12.727Z,101619.77
2022-09-18T13:17:26.622Z,101622.16
2022-09-18T13:20:04.362Z,101622.09
2022-09-18T13:23:11.433Z,101616.23
2022-09-18T13:25:48.479Z,101615.35
2022-09-18T13:28:29.570Z,101609.14
2022-09-18T13:31:25.704Z,101607.38
2022-09-18T13:34:20.853Z,101599.37
2022-09-18T13:37:16.558Z,101593.32
2022-09-18T13:40:38.244Z,101599.30
2022-09-18T13:43:39.334Z,101603.45
2022-09-18T13:46:38.180Z,101595.73
2022-09-18T13:49:56.093Z,101591.00
2022-09-18T13:52:37.474Z,101585.21
2022-09-18T13:55:37.957Z,101582.34
2022-09-18T13:58:34.635Z,101581.12
2022-09-18T14:01:31.431Z,101575.83
2022-09-18T14:04:06.290Z,101571.22
2022-09-18T14:07:10.023Z,101569.25
2022-09-18T14:13:19.488Z,101561.96
2022-09-18T14:16:13.439Z,101568.93
2022-09-18T14:19:05.874Z,101559.25
2022-09-18T14:22:10.610Z,101561.57
2022-09-18T14:25:09.077Z,101564.41
2022-09-18T14:28:02.980Z,101558.10
2022-09-18T14:31:00.454Z,101548.85
2022-09-18T14:33:31.145Z,101551.47
2022-09-18T14:36:12.904Z,101541.16
2022-09-18T14:38:45.946Z,101534.86
2022-09-18T14:41:33.987Z,101528.45
2022-09-18T14:44:08.296Z,101526.32
2022-09-18T14:46:52.317Z,101526.81
2022-09-18T14:49:42.499Z,101518.15
2022-09-18T14:52:41.529Z,101526.13
2022-09-18T14:55:58.191Z,101531.26
2022-09-18T14:58:51.967Z,101526.32
2022-09-18T15:01:36.463Z,101532.30
2022-09-18T15:04:10.441Z,101525.60
2022-09-18T15:06:57.002Z,101523.12
2022-09-18T15:09:40.818Z,101522.83
2022-09-18T15:12:27.834Z,101531.75
2022-09-18T15:15:08.559Z,101524.16
2022-09-18T15:18:08.202Z,101527.30
2022-09-18T15:20:49.225Z,101524.98
2022-09-18T15:23:47.873Z,101531.09
2022-09-18T15:26:47.101Z,101537.08
2022-09-18T15:29:44.966Z,101535.02
2022-09-18T15:32:41.107Z,101527.96
2022-09-18T15:35:42.539Z,101525.90
2022-09-18T15:38:24.977Z,101532.80
2022-09-18T15:41:02.276Z,101536.88
2022-09-18T15:43:48.975Z,101540.97
2022-09-18T15:46:38.390Z,101543.69
2022-09-18T15:49:34.069Z,101541.52
2022-09-18T15:52:43.721Z,101529.07
2022-09-18T15:55:35.470Z,101534.73
2022-09-18T15:58:15.350Z,101527.14
2022-09-18T16:01:05.037Z,101523.77
2022-09-18T16:03:53.439Z,101519.10
2022-09-18T16:06:33.528Z,101510.27
2022-09-18T16:09:23.037Z,101506.94
2022-09-18T16:12:02.135Z,101511.28
2022-09-18T16:15:03.026Z,101510.11
2022-09-18T16:17:37.015Z,101509.62
2022-09-18T16:20:24.278Z,101503.77
2022-09-18T16:23:17.774Z,101516.71
2022-09-18T16:26:04.726Z,101509.09
2022-09-18T16:28:55.848Z,101503.57
2022-09-18T16:31:38.987Z,101506.84
2022-09-18T16:34:34.474Z,101507.20
2022-09-18T16:37:20.472Z,101500.59
2022-09-18T16:40:08.097Z,101495.49
2022-09-18T16:43:06.203Z,101496.21
2022-09-18T16:45:40.565Z,101505.70
2022-09-18T16:48:24.785Z,101499.84
2022-09-18T16:51:32.998Z,101503.83
2022-09-18T16:54:06.698Z,101497.09
2022-09-18T16:56:54.746Z,101497.84
2022-09-18T16:59:39.448Z,101500.27
2022-09-18T17:02:22.420Z,101499.28
2022-09-18T17:05:07.803Z,101502.91
2022-09-18T17:07:52.452Z,101503.53
2022-09-18T17:10:49.947Z,101499.71
2022-09-18T17:13:28.764Z,101500.46
2022-09-18T17:16:26.208Z,101494.12
2022-09-18T17:19:19.436Z,101496.51
2022-09-18T17:22:22.844Z,101510.76
2022-09-18T17:25:12.929Z,101498.23
2022-09-18T17:27:52.473Z,101508.87
2022-09-18T17:30:40.431Z,101498.95
2022-09-18T17:33:41.254Z,101505.89
2022-09-18T17:36:47.678Z,101514.78
2022-09-18T17:39:22.059Z,101519.23
2022-09-18T17:42:20.550Z,101519.55
2022-09-18T17:48:06.944Z,101526.03
2022-09-18T17:51:13.209Z,101520.66
2022-09-18T17:53:48.794Z,101532.90
2022-09-18T17:56:31.911Z,101538.52
2022-09-18T17:59:12.389Z,101540.52
2022-09-18T18:02:00.036Z,101542.93
2022-09-18T18:04:41.410Z,101531.78
2022-09-18T18:07:14.588Z,101540.77
2022-09-18T18:09:55.172Z,101539.44
2022-09-18T18:12:34.710Z,101537.77
2022-09-18T18:15:17.517Z,101545.91
2022-09-18T18:17:50.142Z,101548.30
2022-09-18T18:20:27.151Z,101550.72
2022-09-18T18:23:06.701Z,101555.59
2022-09-18T18:25:42.745Z,101560.03
2022-09-18T18:28:15.568Z,101571.54
2022-09-18T18:31:05.972Z,101580.17
2022-09-18T18:33:59.072Z,101580.50
2022-09-18T18:36:41.146Z,101587.47
2022-09-18T18:39:21.854Z,101580.89
2022-09-18T18:41:59.800Z,101591.52
2022-09-18T18:44:43.786Z,101591.52
2022-09-18T18:47:20.125Z,101589.36
2022-09-18T18:50:03.806Z,101594.27
2022-09-18T18:53:08.033Z,101596.30
2022-09-18T18:55:50.423Z,101600.74
2022-09-18T18:58:46.297Z,101602.77
2022-09-18T19:01:18.799Z,101606.73
2022-09-18T19:03:59.648Z,101604.56
2022-09-18T19:06:40.374Z,101608.16
2022-09-18T19:09:26.763Z,101597.02
2022-09-18T19:12:13.378Z,101609.70
2022-09-18T19:17:40.077Z,101617.48
2022-09-18T19:20:13.513Z,101610.02
2022-09-18T19:22:42.165Z,101604.30
2022-09-18T19:25:28.872Z,101611.23
2022-09-18T19:28:01.891Z,101616.14
2022-09-18T19:30:35.057Z,101615.32
2022-09-18T19:33:08.038Z,101614.44
2022-09-18T19:35:45.394Z,101613.16
2022-09-18T19:38:27.909Z,101601.66
2022-09-18T19:41:19.978Z,101620.59
2022-09-18T19:43:59.772Z,101619.73
2022-09-18T19:46:51.445Z,101613.16
2022-09-18T19:49:47.488Z,101614.70
2022-09-18T19:52:43.775Z,101613.88
2022-09-18T19:55:27.446Z,101601.88
2022-09-18T19:58:03.310Z,101610.52
2022-09-18T20:00:38.366Z,101595.64
2022-09-18T20:03:44.448Z,101605.80
2022-09-18T20:06:44.149Z,101599.73
2022-09-18T20:09:44.860Z,101582.49
2022-09-18T20:12:44.836Z,101581.65
2022-09-18T20:15:18.261Z,101581.16
2022-09-18T20:18:00.780Z,101576.74
2022-09-18T20:20:42.659Z,101581.65
2022-09-18T20:23:41.035Z,101591.32
2022-09-18T20:26:21.676Z,101588.12
2022-09-18T20:29:21.584Z,101597.66
2022-09-18T20:31:55.319Z,101596.85
2022-09-18T20:34:55.087Z,101596.36
2022-09-18T20:38:01.456Z,101590.60
2022-09-18T20:40:39.780Z,101589.43
2022-09-18T20:43:09.633Z,101567.16
2022-09-18T20:46:02.947Z,101577.66
2022-09-18T20:48:43.946Z,101578.87
2022-09-18T20:51:37.112Z,101590.57
2022-09-18T20:54:18.223Z,101584.59
2022-09-18T20:56:51.674Z,101569.25
2022-09-18T20:59:33.113Z,101582.30
2022-09-18T21:02:09.094Z,101571.38
2022-09-18T21:05:03.494Z,101574.71
2022-09-18T21:07:42.756Z,101587.40
2022-09-18T21:10:27.973Z,101585.87
2022-09-18T21:13:14.747Z,101585.73
2022-09-18T21:15:55.230Z,101576.77
2022-09-18T21:18:41.984Z,101582.01
2022-09-18T21:21:15.554Z,101586.91
2022-09-18T21:24:07.124Z,101575.80
2022-09-18T21:26:46.025Z,101563.34
2022-09-18T21:29:28.772Z,101561.67
2022-09-18T21:32:11.963Z,101565.10
2022-09-18T21:35:04.243Z,101561.87
2022-09-18T21:37:37.527Z,101553.76
2022-09-18T21:40:18.004Z,101555.78
2022-09-18T21:43:06.675Z,101556.11
2022-09-18T21:45:48.975Z,101559.38
2022-09-18T21:48:31.245Z,101557.45
2022-09-18T21:54:06.702Z,101565.72
2022-09-18T21:56:41.307Z,101564.52
2022-09-18T21:59:34.415Z,101567.75
2022-09-18T22:02:09.461Z,101564.38
2022-09-18T22:04:52.293Z,101565.23
2022-09-18T22:07:26.020Z,101571.80
2022-09-18T22:10:08.689Z,101579.26
2022-09-18T22:12:42.442Z,101578.73
2022-09-18T22:15:15.180Z,101570.46
2022-09-18T22:17:47.920Z,101576.58
2022-09-18T22:20:22.582Z,101578.24
2022-09-18T22:22:58.006Z,101565.95
2022-09-18T22:25:31.580Z,101571.34
2022-09-18T22:28:19.545Z,101564.28
2022-09-18T22:30:58.515Z,101574.06
2022-09-18T22:33:38.966Z,101577.30
2022-09-18T22:36:12.219Z,101574.42
2022-09-18T22:38:52.597Z,101570.34
2022-09-18T22:41:36.352Z,101574.75
2022-09-18T22:44:24.374Z,101567.48
2022-09-18T22:47:04.503Z,101569.88
2022-09-18T22:49:49.162Z,101573.93
2022-09-18T22:52:31.434Z,101570.20
2022-09-18T22:55:18.910Z,101577.49
2022-09-18T22:58:22.459Z,101572.59
2022-09-18T23:00:59.040Z,101582.89
2022-09-18T23:03:52.482Z,101574.48
2022-09-18T23:06:25.460Z,101582.40
2022-09-18T23:09:04.732Z,101574.62
2022-09-18T23:11:56.446Z,101569.88
2022-09-18T23:14:38.655Z,101573.57
2022-09-18T23:17:27.781Z,101560.79
2022-09-18T23:20:10.763Z,101561.27
2022-09-18T23:22:52.277Z,101564.97
2022-09-18T23:25:35.961Z,101562.81
2022-09-18T23:28:08.581Z,101557.91
2022-09-18T23:30:42.176Z,101563.27
2022-09-18T23:33:17.638Z,101565.82
2022-09-18T23:36:11.599Z,101569.19
2022-09-18T23:39:04.793Z,101568.30
2022-09-18T23:41:39.411Z,101569.52
2022-09-18T23:44:13.134Z,101577.07
2022-09-18T23:46:44.111Z,101575.76
2022-09-18T23:49:24.043Z,101569.29
2022-09-18T23:52:13.899Z,101575.17
2022-09-18T23:54:47.834Z,101569.41
2022-09-18T23:57:20.591Z,101581.74
